Coral Electra — PCAG — position and weather

sailwx.info

Track history (hours):
 
Tides and Currents Weather Stations Pressure Air Temp Water Temp Dewpoint Dewpoint Depression Visibility Wind Speed Wind Dir Waves Ship Positions

Coral Electra

Last reported at 2014-Aug-27 08:32 UTC. Time now 2014-Aug-27 09:11 UTC.
Position N 53°32' E 006°45'.

Length 14 m; draft 2 m.

Type: Port tender. MMSI: 244690019.

Date/timePositionNaut miles runAvg speedWind from/ knotsBaromVisibWave heightAir tempDewpointWater temp
2014-Aug-27 08:32N 53°32' E 006°45'6 5.7
2014-Aug-27 07:31N 53°27' E 006°50'0 0.0
2014-Aug-27 06:30N 53°27' E 006°50'9 6.5
2014-Aug-27 05:05N 53°33' E 006°38'917.1
2014-Aug-27 04:33N 53°27' E 006°49'0 0.2
2014-Aug-27 03:33N 53°27' E 006°50'0 0.0
2014-Aug-27 02:33N 53°27' E 006°50'0 0.0
2014-Aug-27 01:30N 53°27' E 006°50'0 0.0
2014-Aug-27 00:33N 53°27' E 006°50'0 0.0
2014-Aug-26 23:21N 53°27' E 006°50'0 0.0
2014-Aug-26 22:21N 53°27' E 006°50'0 0.0
2014-Aug-26 21:33N 53°27' E 006°50'0 0.0
2014-Aug-26 20:03N 53°27' E 006°50'0 0.0
2014-Aug-26 19:09N 53°27' E 006°50'0 0.0
2014-Aug-26 18:33N 53°27' E 006°50'0 0.1
2014-Aug-26 17:28N 53°27' E 006°50'4 3.4
2014-Aug-26 16:25N 53°30' E 006°47'3 1.8
2014-Aug-26 14:32N 53°27' E 006°50'5 1.6
2014-Aug-26 11:23N 53°31' E 006°44'5 5.3
2014-Aug-26 10:26N 53°27' E 006°50'0 0.3
2014-Aug-26 09:32N 53°27' E 006°49'0 0.1
2014-Aug-26 08:33N 53°27' E 006°49'0 0.0
2014-Aug-26 07:33N 53°27' E 006°49'0 0.1
2014-Aug-26 06:30N 53°27' E 006°49'3 3.3
2014-Aug-26 05:32N 53°30' E 006°47'3 3.0
2014-Aug-26 04:31N 53°27' E 006°49'0 0.2
2014-Aug-26 03:21N 53°27' E 006°50'0 0.0
2014-Aug-26 02:33N 53°27' E 006°50'0 0.0
2014-Aug-26 01:33N 53°27' E 006°50'0 0.0
2014-Aug-26 00:30N 53°27' E 006°50'0 0.0
2014-Aug-25 23:33N 53°27' E 006°50'0 0.0
2014-Aug-25 22:27N 53°27' E 006°50'0 0.0
2014-Aug-25 21:12N 53°27' E 006°50'0 0.0
2014-Aug-25 20:33N 53°27' E 006°50'0 0.0
2014-Aug-25 19:33N 53°27' E 006°50'0 0.0
2014-Aug-25 18:30N 53°27' E 006°50'0 0.1
2014-Aug-25 17:32N 53°27' E 006°50'2 1.8
2014-Aug-25 16:30N 53°29' E 006°49'1111.7
2014-Aug-25 15:33N 53°19' E 006°59'2 1.6
2014-Aug-25 14:33N 53°19' E 006°56'0 0.2
2014-Aug-25 13:33N 53°19' E 006°56'0 0.0
2014-Aug-25 12:27N 53°19' E 006°56'0 0.0
2014-Aug-25 11:21N 53°19' E 006°56'0 0.0
2014-Aug-25 10:33N 53°19' E 006°56'0 0.0
2014-Aug-25 09:27N 53°19' E 006°56'0 0.0
2014-Aug-25 08:30N 53°19' E 006°56'0 0.0
2014-Aug-25 07:33N 53°19' E 006°56'0 0.0
2014-Aug-25 06:33N 53°19' E 006°56'0 0.0
2014-Aug-25 05:33N 53°19' E 006°56'0 0.0
2014-Aug-25 04:33N 53°19' E 006°56'0 0.0
2014-Aug-25 03:24N 53°19' E 006°56'0 0.0
2014-Aug-25 02:27N 53°19' E 006°56'0 0.0
2014-Aug-25 01:33N 53°19' E 006°56'0 0.0
2014-Aug-25 00:33N 53°19' E 006°56'0 0.0
2014-Aug-24 23:30N 53°19' E 006°56'0 0.0
2014-Aug-24 22:30N 53°19' E 006°56'0 0.0
2014-Aug-24 21:33N 53°19' E 006°56'0 0.0
2014-Aug-24 20:33N 53°19' E 006°56'0 0.0
2014-Aug-24 19:33N 53°19' E 006°56'0 0.0
2014-Aug-24 18:24N 53°19' E 006°56'0 0.0
2014-Aug-24 17:33N 53°19' E 006°56'0 0.0
2014-Aug-24 16:24N 53°19' E 006°56'0 0.0
2014-Aug-24 15:33N 53°19' E 006°56'0 0.0
2014-Aug-24 14:33N 53°19' E 006°56'0 0.0
2014-Aug-24 13:33N 53°19' E 006°56'0 0.0
2014-Aug-24 12:33N 53°19' E 006°56'0 0.0
2014-Aug-24 11:30N 53°19' E 006°56'0 0.0
2014-Aug-24 10:30N 53°19' E 006°56'0 0.0
2014-Aug-24 09:30N 53°19' E 006°56'0 0.0
2014-Aug-24 08:27N 53°19' E 006°56'0 0.0
2014-Aug-24 07:27N 53°19' E 006°56'0 0.0
2014-Aug-24 06:30N 53°19' E 006°56'0 0.0
2014-Aug-24 05:33N 53°19' E 006°56'0 0.0
2014-Aug-24 04:33N 53°19' E 006°56'0 0.0
2014-Aug-24 03:33N 53°19' E 006°56'0 0.0
2014-Aug-24 02:33N 53°19' E 006°56'0 0.0
2014-Aug-24 01:33N 53°19' E 006°56'0 0.0
2014-Aug-24 00:33N 53°19' E 006°56'0 0.0
2014-Aug-23 23:33N 53°19' E 006°56'0 0.0
2014-Aug-23 22:33N 53°19' E 006°56'0 0.0
2014-Aug-23 21:33N 53°19' E 006°56'0 0.0
2014-Aug-23 20:33N 53°19' E 006°56'0 0.0
2014-Aug-23 19:24N 53°19' E 006°56'0 0.0
2014-Aug-23 03:30N 53°19' E 006°56'0 0.0
2014-Aug-23 02:33N 53°19' E 006°56'0 0.0
2014-Aug-23 01:33N 53°19' E 006°56'0 0.0
2014-Aug-23 00:33N 53°19' E 006°56'0 0.0
2014-Aug-22 23:21N 53°19' E 006°56'0 0.0
2014-Aug-22 22:33N 53°19' E 006°56'0 0.0
2014-Aug-22 21:33N 53°19' E 006°56'0 0.0
2014-Aug-22 20:33N 53°19' E 006°56'0 0.0
2014-Aug-22 19:27N 53°19' E 006°56'0 0.0
2014-Aug-22 18:33N 53°19' E 006°56'0 0.0
2014-Aug-22 17:30N 53°19' E 006°56'0 0.0
2014-Aug-22 16:24N 53°19' E 006°56'6 7.5
2014-Aug-22 15:33N 53°25' E 006°56'4 1.0
2014-Aug-22 11:30N 53°27' E 006°50'0 0.0
2014-Aug-22 10:15N 53°27' E 006°50'0 0.0
2014-Aug-22 09:33N 53°27' E 006°50'0 0.0
2014-Aug-22 08:26N 53°27' E 006°50'0 0.0
2014-Aug-22 07:33N 53°27' E 006°50'0 0.0
2014-Aug-22 06:32N 53°27' E 006°50'0 0.0
2014-Aug-22 05:33N 53°27' E 006°50'0 0.0
2014-Aug-22 04:30N 53°27' E 006°50'0 0.0
2014-Aug-22 03:33N 53°27' E 006°50'0 0.0
2014-Aug-22 02:24N 53°27' E 006°50'0 0.0
2014-Aug-22 01:30N 53°27' E 006°50'0 0.0
2014-Aug-22 00:24N 53°27' E 006°50'0 0.0
2014-Aug-21 22:29N 53°27' E 006°50'0 0.0
2014-Aug-21 21:33N 53°27' E 006°50'0 0.0
2014-Aug-21 20:17N 53°27' E 006°50'0 0.0
2014-Aug-21 19:30N 53°27' E 006°50'0 0.0
2014-Aug-21 18:24N 53°27' E 006°50'0 0.0
2014-Aug-21 17:32N 53°27' E 006°50'0 0.0
2014-Aug-21 16:17N 53°27' E 006°50'0 0.0
2014-Aug-21 15:32N 53°27' E 006°50'0 0.0
2014-Aug-21 14:32N 53°27' E 006°50'0 0.0
2014-Aug-21 13:32N 53°27' E 006°50'0 0.0
2014-Aug-21 12:32N 53°27' E 006°50'0 0.0
2014-Aug-21 11:32N 53°27' E 006°50'0 0.0
2014-Aug-21 10:32N 53°27' E 006°50'0 0.0
2014-Aug-21 08:26N 53°27' E 006°50'0 0.0
2014-Aug-21 04:26N 53°27' E 006°50'0 0.0
2014-Aug-21 02:32N 53°27' E 006°50'0 0.0
2014-Aug-21 00:32N 53°27' E 006°50'0 0.0
2014-Aug-20 23:32N 53°27' E 006°50'0 0.0
2014-Aug-20 22:29N 53°27' E 006°50'0 0.0
2014-Aug-20 21:11N 53°27' E 006°50'0 0.0
2014-Aug-20 20:32N 53°27' E 006°50'0 0.0
2014-Aug-20 19:32N 53°27' E 006°50'0 0.0
2014-Aug-20 18:26N 53°27' E 006°50'0 0.0
2014-Aug-20 17:29N 53°27' E 006°50'0 0.0
2014-Aug-20 16:29N 53°27' E 006°50'0 0.0
2014-Aug-20 15:32N 53°27' E 006°50'0 0.0
2014-Aug-20 14:29N 53°27' E 006°50'0 0.0
2014-Aug-20 13:32N 53°27' E 006°50'0 0.0
2014-Aug-20 12:32N 53°27' E 006°50'0 0.0
2014-Aug-20 09:33N 53°27' E 006°50'8 8.4
2014-Aug-20 08:33N 53°19' E 006°57'1 0.7
2014-Aug-20 07:32N 53°19' E 006°56'0 0.0
2014-Aug-20 06:26N 53°19' E 006°56'0 0.0
2014-Aug-20 05:32N 53°19' E 006°56'0 0.0
2014-Aug-20 04:26N 53°19' E 006°56'0 0.0
2014-Aug-20 03:29N 53°19' E 006°56'0 0.0
2014-Aug-20 02:32N 53°19' E 006°56'0 0.0
2014-Aug-20 01:26N 53°19' E 006°56'0 0.0
2014-Aug-20 00:29N 53°19' E 006°56'0 0.0
2014-Aug-19 23:32N 53°19' E 006°56'0 0.0
2014-Aug-19 22:32N 53°19' E 006°56'0 0.0
2014-Aug-19 21:32N 53°19' E 006°56'0 0.0
2014-Aug-19 20:32N 53°19' E 006°56'0 0.0
2014-Aug-19 19:32N 53°19' E 006°56'0 0.0
2014-Aug-19 18:32N 53°19' E 006°56'0 0.0
2014-Aug-19 17:29N 53°19' E 006°56'0 0.0
2014-Aug-19 16:29N 53°19' E 006°56'0 0.0
2014-Aug-19 15:32N 53°19' E 006°56'0 0.0
2014-Aug-19 14:29N 53°19' E 006°56'0 0.0
2014-Aug-19 13:32N 53°19' E 006°56'0 0.0
2014-Aug-19 12:26N 53°19' E 006°56'0 0.0
2014-Aug-19 11:32N 53°19' E 006°56'0 0.0
2014-Aug-19 10:29N 53°19' E 006°56'0 0.0
2014-Aug-19 09:32N 53°19' E 006°56'0 0.0
2014-Aug-19 08:26N 53°19' E 006°56'0 0.0
2014-Aug-19 07:31N 53°19' E 006°56'0 0.0
2014-Aug-19 06:32N 53°19' E 006°56'0 0.0
2014-Aug-19 05:32N 53°19' E 006°56'0 0.0
2014-Aug-19 04:32N 53°19' E 006°56'0 0.0
2014-Aug-19 03:26N 53°19' E 006°56'0 0.0
2014-Aug-19 02:32N 53°19' E 006°56'0 0.0
2014-Aug-19 01:19N 53°19' E 006°56'0 0.0
2014-Aug-19 00:32N 53°19' E 006°56'0 0.0
2014-Aug-18 23:32N 53°19' E 006°56'0 0.0
2014-Aug-18 22:32N 53°19' E 006°56'0 0.0
2014-Aug-18 21:29N 53°19' E 006°56'0 0.0
2014-Aug-18 20:29N 53°19' E 006°56'0 0.0
2014-Aug-18 19:20N 53°19' E 006°56'0 0.0
2014-Aug-18 18:32N 53°19' E 006°56'0 0.0
2014-Aug-18 17:28N 53°19' E 006°56'0 0.0
2014-Aug-18 16:32N 53°19' E 006°56'0 0.0
2014-Aug-18 15:25N 53°19' E 006°56'0 0.0
2014-Aug-18 14:32N 53°19' E 006°56'0 0.0
2014-Aug-18 13:31N 53°19' E 006°56'0 0.0
2014-Aug-18 12:28N 53°19' E 006°56'0 0.0
2014-Aug-18 11:22N 53°19' E 006°56'0 0.0
2014-Aug-18 10:32N 53°19' E 006°56'0 0.0
2014-Aug-18 09:29N 53°19' E 006°56'0 0.0
2014-Aug-18 08:19N 53°19' E 006°56'0 0.0
2014-Aug-18 07:20N 53°19' E 006°56'0 0.0
2014-Aug-18 06:28N 53°19' E 006°56'0 0.0
2014-Aug-18 05:28N 53°19' E 006°56'0 0.0
2014-Aug-18 04:31N 53°19' E 006°56'0 0.0
2014-Aug-18 03:22N 53°19' E 006°56'0 0.0
2014-Aug-18 02:28N 53°19' E 006°56'0 0.0
2014-Aug-18 01:31N 53°19' E 006°56'0 0.0
2014-Aug-18 00:10N 53°19' E 006°56'0 0.0
2014-Aug-17 18:25N 53°19' E 006°56'0 0.0
2014-Aug-17 17:19N 53°19' E 006°56'0 0.0
2014-Aug-17 16:31N 53°19' E 006°56'0 0.0
2014-Aug-17 15:28N 53°19' E 006°56'0 0.0
2014-Aug-17 14:28N 53°19' E 006°56'0 0.0
2014-Aug-17 13:28N 53°19' E 006°56'0 0.0
2014-Aug-17 12:25N 53°19' E 006°56'0 0.0
2014-Aug-17 11:31N 53°19' E 006°56'0 0.0
2014-Aug-17 10:31N 53°19' E 006°56'0 0.0
2014-Aug-17 09:31N 53°19' E 006°56'  
Track history (hours):
 
Tides and Currents Weather Stations Pressure Air Temp Water Temp Dewpoint Dewpoint Depression Visibility Wind Speed Wind Dir Waves Ship Positions

Coral Electra

Last reported at 2014-Aug-27 08:32 UTC. Time now 2014-Aug-27 09:11 UTC.
Position N 53°32' E 006°45'.

Length 14 m; draft 2 m.

Type: Port tender. MMSI: 244690019.

Date/timePositionNaut miles runAvg speedWind from/ knotsBaromVisibWave heightAir tempDewpointWater temp
2014-Aug-27 08:32N 53°32' E 006°45'6 5.7
2014-Aug-27 07:31N 53°27' E 006°50'0 0.0
2014-Aug-27 06:30N 53°27' E 006°50'9 6.5
2014-Aug-27 05:05N 53°33' E 006°38'917.1
2014-Aug-27 04:33N 53°27' E 006°49'0 0.2
2014-Aug-27 03:33N 53°27' E 006°50'0 0.0
2014-Aug-27 02:33N 53°27' E 006°50'0 0.0
2014-Aug-27 01:30N 53°27' E 006°50'0 0.0
2014-Aug-27 00:33N 53°27' E 006°50'0 0.0
2014-Aug-26 23:21N 53°27' E 006°50'0 0.0
2014-Aug-26 22:21N 53°27' E 006°50'0 0.0
2014-Aug-26 21:33N 53°27' E 006°50'0 0.0
2014-Aug-26 20:03N 53°27' E 006°50'0 0.0
2014-Aug-26 19:09N 53°27' E 006°50'0 0.0
2014-Aug-26 18:33N 53°27' E 006°50'0 0.1
2014-Aug-26 17:28N 53°27' E 006°50'4 3.4
2014-Aug-26 16:25N 53°30' E 006°47'3 1.8
2014-Aug-26 14:32N 53°27' E 006°50'5 1.6
2014-Aug-26 11:23N 53°31' E 006°44'5 5.3
2014-Aug-26 10:26N 53°27' E 006°50'0 0.3
2014-Aug-26 09:32N 53°27' E 006°49'0 0.1
2014-Aug-26 08:33N 53°27' E 006°49'0 0.0
2014-Aug-26 07:33N 53°27' E 006°49'0 0.1
2014-Aug-26 06:30N 53°27' E 006°49'3 3.3
2014-Aug-26 05:32N 53°30' E 006°47'3 3.0
2014-Aug-26 04:31N 53°27' E 006°49'0 0.2
2014-Aug-26 03:21N 53°27' E 006°50'0 0.0
2014-Aug-26 02:33N 53°27' E 006°50'0 0.0
2014-Aug-26 01:33N 53°27' E 006°50'0 0.0
2014-Aug-26 00:30N 53°27' E 006°50'0 0.0
2014-Aug-25 23:33N 53°27' E 006°50'0 0.0
2014-Aug-25 22:27N 53°27' E 006°50'0 0.0
2014-Aug-25 21:12N 53°27' E 006°50'0 0.0
2014-Aug-25 20:33N 53°27' E 006°50'0 0.0
2014-Aug-25 19:33N 53°27' E 006°50'0 0.0
2014-Aug-25 18:30N 53°27' E 006°50'0 0.1
2014-Aug-25 17:32N 53°27' E 006°50'2 1.8
2014-Aug-25 16:30N 53°29' E 006°49'1111.7
2014-Aug-25 15:33N 53°19' E 006°59'2 1.6
2014-Aug-25 14:33N 53°19' E 006°56'0 0.2
2014-Aug-25 13:33N 53°19' E 006°56'0 0.0
2014-Aug-25 12:27N 53°19' E 006°56'0 0.0
2014-Aug-25 11:21N 53°19' E 006°56'0 0.0
2014-Aug-25 10:33N 53°19' E 006°56'0 0.0
2014-Aug-25 09:27N 53°19' E 006°56'0 0.0
2014-Aug-25 08:30N 53°19' E 006°56'0 0.0
2014-Aug-25 07:33N 53°19' E 006°56'0 0.0
2014-Aug-25 06:33N 53°19' E 006°56'0 0.0
2014-Aug-25 05:33N 53°19' E 006°56'0 0.0
2014-Aug-25 04:33N 53°19' E 006°56'0 0.0
2014-Aug-25 03:24N 53°19' E 006°56'0 0.0
2014-Aug-25 02:27N 53°19' E 006°56'0 0.0
2014-Aug-25 01:33N 53°19' E 006°56'0 0.0
2014-Aug-25 00:33N 53°19' E 006°56'0 0.0
2014-Aug-24 23:30N 53°19' E 006°56'0 0.0
2014-Aug-24 22:30N 53°19' E 006°56'0 0.0
2014-Aug-24 21:33N 53°19' E 006°56'0 0.0
2014-Aug-24 20:33N 53°19' E 006°56'0 0.0
2014-Aug-24 19:33N 53°19' E 006°56'0 0.0
2014-Aug-24 18:24N 53°19' E 006°56'0 0.0
2014-Aug-24 17:33N 53°19' E 006°56'0 0.0
2014-Aug-24 16:24N 53°19' E 006°56'0 0.0
2014-Aug-24 15:33N 53°19' E 006°56'0 0.0
2014-Aug-24 14:33N 53°19' E 006°56'0 0.0
2014-Aug-24 13:33N 53°19' E 006°56'0 0.0
2014-Aug-24 12:33N 53°19' E 006°56'0 0.0
2014-Aug-24 11:30N 53°19' E 006°56'0 0.0
2014-Aug-24 10:30N 53°19' E 006°56'0 0.0
2014-Aug-24 09:30N 53°19' E 006°56'0 0.0
2014-Aug-24 08:27N 53°19' E 006°56'0 0.0
2014-Aug-24 07:27N 53°19' E 006°56'0 0.0
2014-Aug-24 06:30N 53°19' E 006°56'0 0.0
2014-Aug-24 05:33N 53°19' E 006°56'0 0.0
2014-Aug-24 04:33N 53°19' E 006°56'0 0.0
2014-Aug-24 03:33N 53°19' E 006°56'0 0.0
2014-Aug-24 02:33N 53°19' E 006°56'0 0.0
2014-Aug-24 01:33N 53°19' E 006°56'0 0.0
2014-Aug-24 00:33N 53°19' E 006°56'0 0.0
2014-Aug-23 23:33N 53°19' E 006°56'0 0.0
2014-Aug-23 22:33N 53°19' E 006°56'0 0.0
2014-Aug-23 21:33N 53°19' E 006°56'0 0.0
2014-Aug-23 20:33N 53°19' E 006°56'0 0.0
2014-Aug-23 19:24N 53°19' E 006°56'0 0.0
2014-Aug-23 03:30N 53°19' E 006°56'0 0.0
2014-Aug-23 02:33N 53°19' E 006°56'0 0.0
2014-Aug-23 01:33N 53°19' E 006°56'0 0.0
2014-Aug-23 00:33N 53°19' E 006°56'0 0.0
2014-Aug-22 23:21N 53°19' E 006°56'0 0.0
2014-Aug-22 22:33N 53°19' E 006°56'0 0.0
2014-Aug-22 21:33N 53°19' E 006°56'0 0.0
2014-Aug-22 20:33N 53°19' E 006°56'0 0.0
2014-Aug-22 19:27N 53°19' E 006°56'0 0.0
2014-Aug-22 18:33N 53°19' E 006°56'0 0.0
2014-Aug-22 17:30N 53°19' E 006°56'0 0.0
2014-Aug-22 16:24N 53°19' E 006°56'6 7.5
2014-Aug-22 15:33N 53°25' E 006°56'4 1.0
2014-Aug-22 11:30N 53°27' E 006°50'0 0.0
2014-Aug-22 10:15N 53°27' E 006°50'0 0.0
2014-Aug-22 09:33N 53°27' E 006°50'0 0.0
2014-Aug-22 08:26N 53°27' E 006°50'0 0.0
2014-Aug-22 07:33N 53°27' E 006°50'0 0.0
2014-Aug-22 06:32N 53°27' E 006°50'0 0.0
2014-Aug-22 05:33N 53°27' E 006°50'0 0.0
2014-Aug-22 04:30N 53°27' E 006°50'0 0.0
2014-Aug-22 03:33N 53°27' E 006°50'0 0.0
2014-Aug-22 02:24N 53°27' E 006°50'0 0.0
2014-Aug-22 01:30N 53°27' E 006°50'0 0.0
2014-Aug-22 00:24N 53°27' E 006°50'0 0.0
2014-Aug-21 22:29N 53°27' E 006°50'0 0.0
2014-Aug-21 21:33N 53°27' E 006°50'0 0.0
2014-Aug-21 20:17N 53°27' E 006°50'0 0.0
2014-Aug-21 19:30N 53°27' E 006°50'0 0.0
2014-Aug-21 18:24N 53°27' E 006°50'0 0.0
2014-Aug-21 17:32N 53°27' E 006°50'0 0.0
2014-Aug-21 16:17N 53°27' E 006°50'0 0.0
2014-Aug-21 15:32N 53°27' E 006°50'0 0.0
2014-Aug-21 14:32N 53°27' E 006°50'0 0.0
2014-Aug-21 13:32N 53°27' E 006°50'0 0.0
2014-Aug-21 12:32N 53°27' E 006°50'0 0.0
2014-Aug-21 11:32N 53°27' E 006°50'0 0.0
2014-Aug-21 10:32N 53°27' E 006°50'0 0.0
2014-Aug-21 08:26N 53°27' E 006°50'0 0.0
2014-Aug-21 04:26N 53°27' E 006°50'0 0.0
2014-Aug-21 02:32N 53°27' E 006°50'0 0.0
2014-Aug-21 00:32N 53°27' E 006°50'0 0.0
2014-Aug-20 23:32N 53°27' E 006°50'0 0.0
2014-Aug-20 22:29N 53°27' E 006°50'0 0.0
2014-Aug-20 21:11N 53°27' E 006°50'0 0.0
2014-Aug-20 20:32N 53°27' E 006°50'0 0.0
2014-Aug-20 19:32N 53°27' E 006°50'0 0.0
2014-Aug-20 18:26N 53°27' E 006°50'0 0.0
2014-Aug-20 17:29N 53°27' E 006°50'0 0.0
2014-Aug-20 16:29N 53°27' E 006°50'0 0.0
2014-Aug-20 15:32N 53°27' E 006°50'0 0.0
2014-Aug-20 14:29N 53°27' E 006°50'0 0.0
2014-Aug-20 13:32N 53°27' E 006°50'0 0.0
2014-Aug-20 12:32N 53°27' E 006°50'0 0.0
2014-Aug-20 09:33N 53°27' E 006°50'8 8.4
2014-Aug-20 08:33N 53°19' E 006°57'1 0.7
2014-Aug-20 07:32N 53°19' E 006°56'0 0.0
2014-Aug-20 06:26N 53°19' E 006°56'0 0.0
2014-Aug-20 05:32N 53°19' E 006°56'0 0.0
2014-Aug-20 04:26N 53°19' E 006°56'0 0.0
2014-Aug-20 03:29N 53°19' E 006°56'0 0.0
2014-Aug-20 02:32N 53°19' E 006°56'0 0.0
2014-Aug-20 01:26N 53°19' E 006°56'0 0.0
2014-Aug-20 00:29N 53°19' E 006°56'0 0.0
2014-Aug-19 23:32N 53°19' E 006°56'0 0.0
2014-Aug-19 22:32N 53°19' E 006°56'0 0.0
2014-Aug-19 21:32N 53°19' E 006°56'0 0.0
2014-Aug-19 20:32N 53°19' E 006°56'0 0.0
2014-Aug-19 19:32N 53°19' E 006°56'0 0.0
2014-Aug-19 18:32N 53°19' E 006°56'0 0.0
2014-Aug-19 17:29N 53°19' E 006°56'0 0.0
2014-Aug-19 16:29N 53°19' E 006°56'0 0.0
2014-Aug-19 15:32N 53°19' E 006°56'0 0.0
2014-Aug-19 14:29N 53°19' E 006°56'0 0.0
2014-Aug-19 13:32N 53°19' E 006°56'0 0.0
2014-Aug-19 12:26N 53°19' E 006°56'0 0.0
2014-Aug-19 11:32N 53°19' E 006°56'0 0.0
2014-Aug-19 10:29N 53°19' E 006°56'0 0.0
2014-Aug-19 09:32N 53°19' E 006°56'0 0.0
2014-Aug-19 08:26N 53°19' E 006°56'0 0.0
2014-Aug-19 07:31N 53°19' E 006°56'0 0.0
2014-Aug-19 06:32N 53°19' E 006°56'0 0.0
2014-Aug-19 05:32N 53°19' E 006°56'0 0.0
2014-Aug-19 04:32N 53°19' E 006°56'0 0.0
2014-Aug-19 03:26N 53°19' E 006°56'0 0.0
2014-Aug-19 02:32N 53°19' E 006°56'0 0.0
2014-Aug-19 01:19N 53°19' E 006°56'0 0.0
2014-Aug-19 00:32N 53°19' E 006°56'0 0.0
2014-Aug-18 23:32N 53°19' E 006°56'0 0.0
2014-Aug-18 22:32N 53°19' E 006°56'0 0.0
2014-Aug-18 21:29N 53°19' E 006°56'0 0.0
2014-Aug-18 20:29N 53°19' E 006°56'0 0.0
2014-Aug-18 19:20N 53°19' E 006°56'0 0.0
2014-Aug-18 18:32N 53°19' E 006°56'0 0.0
2014-Aug-18 17:28N 53°19' E 006°56'0 0.0
2014-Aug-18 16:32N 53°19' E 006°56'0 0.0
2014-Aug-18 15:25N 53°19' E 006°56'0 0.0
2014-Aug-18 14:32N 53°19' E 006°56'0 0.0
2014-Aug-18 13:31N 53°19' E 006°56'0 0.0
2014-Aug-18 12:28N 53°19' E 006°56'0 0.0
2014-Aug-18 11:22N 53°19' E 006°56'0 0.0
2014-Aug-18 10:32N 53°19' E 006°56'0 0.0
2014-Aug-18 09:29N 53°19' E 006°56'0 0.0
2014-Aug-18 08:19N 53°19' E 006°56'0 0.0
2014-Aug-18 07:20N 53°19' E 006°56'0 0.0
2014-Aug-18 06:28N 53°19' E 006°56'0 0.0
2014-Aug-18 05:28N 53°19' E 006°56'0 0.0
2014-Aug-18 04:31N 53°19' E 006°56'0 0.0
2014-Aug-18 03:22N 53°19' E 006°56'0 0.0
2014-Aug-18 02:28N 53°19' E 006°56'0 0.0
2014-Aug-18 01:31N 53°19' E 006°56'0 0.0
2014-Aug-18 00:10N 53°19' E 006°56'0 0.0
2014-Aug-17 18:25N 53°19' E 006°56'0 0.0
2014-Aug-17 17:19N 53°19' E 006°56'0 0.0
2014-Aug-17 16:31N 53°19' E 006°56'0 0.0
2014-Aug-17 15:28N 53°19' E 006°56'0 0.0
2014-Aug-17 14:28N 53°19' E 006°56'0 0.0
2014-Aug-17 13:28N 53°19' E 006°56'0 0.0
2014-Aug-17 12:25N 53°19' E 006°56'0 0.0
2014-Aug-17 11:31N 53°19' E 006°56'0 0.0
2014-Aug-17 10:31N 53°19' E 006°56'0 0.0
2014-Aug-17 09:31N 53°19' E 006°56'  

Dump ship's entire track history